Time;durP1;ratioP1;P1;durP2;ratioP2;P2;SDS_P1;SDS_P2;PMS_P1;PMS_P2;Temp;Humidity;BMP_temperature;BMP_pressure;BME280_temperature;BME280_humidity;BME280_pressure;Samples;Min_cycle;Max_cycle;Signal;HPM_P1;HPM_P2
2021/12/03 00:01:46;;;;;;;1.10;1.10;;;-2.50;99.90;;;;;;7380801;19;20684;-78
2021/12/03 00:04:11;;;;;;;1.40;1.30;;;-2.50;99.90;;;;;;7378044;19;20328;-78
2021/12/03 00:06:38;;;;;;;1.20;1.20;;;-2.50;99.90;;;;;;7378547;19;20312;-78
2021/12/03 00:09:04;;;;;;;1.40;1.30;;;-2.40;99.90;;;;;;7381741;19;20316;-79
2021/12/03 00:11:30;;;;;;;1.00;1.00;;;-2.60;99.90;;;;;;7377155;19;20309;-79
2021/12/03 00:13:55;;;;;;;1.70;1.48;;;-2.50;99.90;;;;;;7376086;19;20304;-77
2021/12/03 00:16:21;;;;;;;1.87;1.23;;;-2.60;99.90;;;;;;7377642;19;20308;-77
2021/12/03 00:18:47;;;;;;;1.20;1.20;;;-2.60;99.90;;;;;;7376167;19;20424;-77
2021/12/03 00:21:13;;;;;;;1.27;1.10;;;-2.60;99.90;;;;;;7376141;19;20344;-77
2021/12/03 00:23:38;;;;;;;1.47;1.37;;;-2.60;99.90;;;;;;7375654;19;20340;-76
2021/12/03 00:26:05;;;;;;;1.37;1.23;;;-2.60;99.90;;;;;;7375380;19;20348;-77
2021/12/03 00:28:31;;;;;;;1.60;1.13;;;-2.70;99.90;;;;;;7380413;19;20304;-76
2021/12/03 00:30:57;;;;;;;0.93;0.93;;;-2.70;99.90;;;;;;7388930;19;20338;-75
2021/12/03 00:33:22;;;;;;;3.30;1.80;;;-2.70;99.90;;;;;;7384797;19;20662;-78
2021/12/03 00:35:48;;;;;;;1.20;1.10;;;-2.80;99.90;;;;;;7387581;19;20312;-78
2021/12/03 00:38:15;;;;;;;1.30;1.17;;;-2.80;99.90;;;;;;7390134;19;20304;-79
2021/12/03 00:40:41;;;;;;;1.13;1.02;;;-2.70;99.90;;;;;;7389903;19;20323;-77
2021/12/03 00:43:07;;;;;;;1.40;1.20;;;-2.80;99.90;;;;;;7387985;19;20308;-78
2021/12/03 00:45:33;;;;;;;1.38;1.27;;;-2.80;99.90;;;;;;7371050;19;20894;-78
2021/12/03 00:47:59;;;;;;;1.10;1.10;;;-2.80;99.90;;;;;;7385021;19;20321;-78
2021/12/03 00:50:25;;;;;;;1.25;1.25;;;-2.80;99.90;;;;;;7384542;19;20388;-78
2021/12/03 00:52:51;;;;;;;1.13;1.10;;;-2.90;99.90;;;;;;7389417;19;20337;-78
2021/12/03 00:55:21;;;;;;;1.17;1.13;;;-2.90;99.90;;;;;;7388053;19;20332;-78
2021/12/03 00:57:46;;;;;;;1.50;1.20;;;-2.90;99.90;;;;;;7385527;19;20320;-77
2021/12/03 01:00:18;;;;;;;1.43;1.30;;;-2.90;99.90;;;;;;7386395;19;20320;-78
2021/12/03 01:02:44;;;;;;;0.90;0.90;;;-2.90;99.90;;;;;;7384841;19;20851;-78
2021/12/03 01:05:09;;;;;;;1.75;1.00;;;-2.90;99.90;;;;;;7385475;19;22993;-77
2021/12/03 01:07:35;;;;;;;0.87;0.87;;;-2.90;99.90;;;;;;7385264;19;20332;-78
2021/12/03 01:10:01;;;;;;;3.57;1.23;;;-2.90;99.90;;;;;;7385921;19;20312;-77
2021/12/03 01:12:26;;;;;;;0.85;0.85;;;-2.90;99.90;;;;;;7384730;19;20352;-78
2021/12/03 01:14:52;;;;;;;2.92;1.60;;;-2.90;99.90;;;;;;7384606;19;20328;-78
2021/12/03 01:17:18;;;;;;;1.30;1.20;;;-2.90;99.90;;;;;;7387024;19;20902;-77
2021/12/03 01:19:43;;;;;;;1.23;1.13;;;-2.80;99.90;;;;;;7385135;19;20797;-78
2021/12/03 01:22:09;;;;;;;1.58;1.48;;;-2.80;99.90;;;;;;7382131;19;20309;-78
2021/12/03 01:24:35;;;;;;;2.60;1.30;;;-2.80;99.90;;;;;;7384724;19;20315;-77
2021/12/03 01:27:00;;;;;;;1.05;0.98;;;-2.80;99.90;;;;;;7384380;19;20297;-78
2021/12/03 01:29:26;;;;;;;3.87;1.60;;;-2.80;99.90;;;;;;7385242;19;20296;-78
2021/12/03 01:31:54;;;;;;;0.80;0.80;;;-2.80;99.90;;;;;;7384433;19;20365;-77
2021/12/03 01:34:20;;;;;;;2.20;1.30;;;-2.70;99.90;;;;;;7383501;19;20690;-78
2021/12/03 01:36:45;;;;;;;1.90;1.20;;;-2.70;99.90;;;;;;7383300;19;20368;-78
2021/12/03 01:39:12;;;;;;;1.53;1.43;;;-2.70;99.90;;;;;;7386204;19;20356;-78
2021/12/03 01:41:38;;;;;;;1.88;1.45;;;-2.70;99.90;;;;;;7384673;19;21271;-77
2021/12/03 01:44:04;;;;;;;1.48;1.30;;;-2.70;99.90;;;;;;7383235;19;20305;-78
2021/12/03 01:46:31;;;;;;;1.08;1.08;;;-2.70;99.90;;;;;;7385128;19;20344;-77
2021/12/03 01:48:56;;;;;;;0.98;0.98;;;-2.70;99.90;;;;;;7385309;19;20681;-78
2021/12/03 01:51:22;;;;;;;1.30;1.20;;;-2.70;99.90;;;;;;7385364;19;20320;-76
2021/12/03 01:53:48;;;;;;;4.18;1.35;;;-2.70;99.90;;;;;;7384591;19;20905;-79
2021/12/03 01:56:14;;;;;;;1.25;1.25;;;-2.70;99.90;;;;;;7385103;19;20317;-78
2021/12/03 01:58:40;;;;;;;1.60;1.30;;;-2.70;99.90;;;;;;7383343;19;20315;-78
2021/12/03 02:01:08;;;;;;;1.30;1.23;;;-2.70;99.90;;;;;;7384065;19;20311;-77
2021/12/03 02:03:35;;;;;;;1.08;1.08;;;-2.70;99.90;;;;;;7385252;19;20340;-79
2021/12/03 02:06:01;;;;;;;1.45;0.98;;;-2.80;99.90;;;;;;7383233;19;20313;-77
2021/12/03 02:08:27;;;;;;;1.08;1.00;;;-2.80;99.90;;;;;;7384454;19;20316;-78
2021/12/03 02:10:53;;;;;;;1.00;1.00;;;-2.70;99.90;;;;;;7385867;19;20301;-77
2021/12/03 02:13:18;;;;;;;1.45;1.35;;;-2.80;99.90;;;;;;7385250;19;20348;-78
2021/12/03 02:15:44;;;;;;;1.20;1.10;;;-2.80;99.90;;;;;;7385375;19;20317;-79
2021/12/03 02:18:10;;;;;;;2.50;1.53;;;-2.80;99.90;;;;;;7386167;19;20367;-78
2021/12/03 02:20:47;;;;;;;1.05;1.05;;;-2.80;99.90;;;;;;7385098;19;20377;-78
2021/12/03 02:23:14;;;;;;;1.83;1.30;;;-2.80;99.90;;;;;;7383004;19;20383;-78
2021/12/03 02:25:40;;;;;;;1.55;1.17;;;-2.80;99.90;;;;;;7382412;19;20349;-78
2021/12/03 02:28:06;;;;;;;1.40;1.30;;;-2.80;99.90;;;;;;7380403;19;20355;-77
2021/12/03 02:30:31;;;;;;;1.63;1.48;;;-2.80;99.90;;;;;;7367112;19;20344;-79
2021/12/03 02:32:57;;;;;;;1.40;1.30;;;-2.80;99.90;;;;;;7383064;19;20339;-78
2021/12/03 02:35:23;;;;;;;5.13;1.83;;;-2.70;99.90;;;;;;7382522;19;20379;-77
2021/12/03 02:37:49;;;;;;;1.30;1.30;;;-2.90;99.90;;;;;;7374918;19;20460;-78
2021/12/03 02:40:15;;;;;;;2.30;1.65;;;-2.80;99.90;;;;;;7384972;19;20296;-77
2021/12/03 02:42:41;;;;;;;1.20;1.10;;;-2.80;99.90;;;;;;7383698;19;20868;-78
2021/12/03 02:45:07;;;;;;;1.37;1.27;;;-2.80;99.90;;;;;;7384557;19;20348;-79
2021/12/03 02:47:33;;;;;;;2.70;2.00;;;-2.80;99.90;;;;;;7383479;19;20333;-79
2021/12/03 02:49:59;;;;;;;1.60;1.50;;;-2.90;99.90;;;;;;7383579;19;20392;-78
2021/12/03 02:52:24;;;;;;;1.65;1.52;;;-2.90;99.90;;;;;;7382014;19;20315;-78
2021/12/03 02:54:50;;;;;;;6.10;1.58;;;-2.90;99.90;;;;;;7383903;19;20405;-78
2021/12/03 02:57:16;;;;;;;1.90;1.60;;;-2.90;99.90;;;;;;7384829;19;20305;-78
2021/12/03 02:59:41;;;;;;;3.88;1.35;;;-2.90;99.90;;;;;;7378068;19;20304;-77
2021/12/03 03:02:07;;;;;;;2.23;1.83;;;-2.90;99.90;;;;;;7382943;19;20328;-78
2021/12/03 03:04:33;;;;;;;1.40;1.30;;;-3.00;99.90;;;;;;7381704;19;20974;-78
2021/12/03 03:06:59;;;;;;;3.50;2.03;;;-3.00;99.90;;;;;;7383671;19;20444;-77
2021/12/03 03:09:25;;;;;;;3.60;2.00;;;-2.80;99.90;;;;;;7382582;19;20685;-76
2021/12/03 03:11:51;;;;;;;2.00;1.40;;;-2.90;99.90;;;;;;7389628;19;20316;-80
2021/12/03 03:14:17;;;;;;;4.40;1.52;;;-2.90;99.90;;;;;;7389130;19;20315;-77
2021/12/03 03:16:43;;;;;;;1.63;1.52;;;-2.90;99.90;;;;;;7384653;19;20366;-78
2021/12/03 03:19:19;;;;;;;4.35;1.80;;;-2.90;99.90;;;;;;7383337;19;21123;-78
2021/12/03 03:21:45;;;;;;;4.15;2.03;;;-2.90;99.90;;;;;;7280530;19;2020206;-78
2021/12/03 03:24:11;;;;;;;1.70;1.60;;;-2.90;99.90;;;;;;7383121;19;20327;-78
2021/12/03 03:26:38;;;;;;;1.63;1.50;;;-2.90;99.90;;;;;;7383325;19;20727;-78
2021/12/03 03:29:07;;;;;;;1.75;1.35;;;-2.90;99.90;;;;;;7380816;19;21237;-78
2021/12/03 03:31:33;;;;;;;2.83;1.48;;;-2.90;99.90;;;;;;7381860;19;20308;-78
2021/12/03 03:33:59;;;;;;;1.80;1.70;;;-2.90;99.90;;;;;;7382459;19;20341;-78
2021/12/03 03:36:24;;;;;;;2.17;1.73;;;-2.90;99.90;;;;;;7384314;19;20305;-79
2021/12/03 03:38:50;;;;;;;2.33;1.50;;;-2.90;99.90;;;;;;7381985;19;20850;-78
2021/12/03 03:41:16;;;;;;;3.35;1.60;;;-2.90;99.90;;;;;;7384135;19;20974;-78
2021/12/03 03:43:41;;;;;;;2.10;1.90;;;-2.90;99.90;;;;;;7384270;19;21190;-79
2021/12/03 03:46:07;;;;;;;2.30;1.80;;;-2.80;99.90;;;;;;7383768;19;20337;-78
2021/12/03 03:48:33;;;;;;;1.65;1.55;;;-2.80;99.90;;;;;;7382551;19;20305;-78
2021/12/03 03:50:58;;;;;;;2.40;2.13;;;-2.80;99.90;;;;;;7382934;19;20341;-78
2021/12/03 03:53:24;;;;;;;1.60;1.50;;;-2.80;99.90;;;;;;7383228;19;20312;-78
2021/12/03 03:55:49;;;;;;;3.30;1.90;;;-2.80;99.90;;;;;;7383674;19;20337;-77
2021/12/03 03:58:18;;;;;;;1.83;1.73;;;-2.80;99.90;;;;;;7382225;19;20657;-78
2021/12/03 04:00:44;;;;;;;1.85;1.75;;;-2.80;99.90;;;;;;7384230;19;20312;-78
2021/12/03 04:03:10;;;;;;;1.60;1.50;;;-2.80;99.90;;;;;;7383138;19;20407;-78
2021/12/03 04:05:36;;;;;;;1.47;1.37;;;-2.80;99.90;;;;;;7385840;19;20393;-78
2021/12/03 04:08:02;;;;;;;1.70;1.60;;;-2.80;99.90;;;;;;7390148;19;20329;-81
2021/12/03 04:10:27;;;;;;;1.58;1.48;;;-2.80;99.90;;;;;;7389866;19;20858;-78
2021/12/03 04:12:53;;;;;;;2.87;2.10;;;-2.80;99.90;;;;;;7389772;19;20312;-78
2021/12/03 04:15:19;;;;;;;1.67;1.27;;;-2.80;99.90;;;;;;7376273;19;20691;-79
2021/12/03 04:17:45;;;;;;;1.73;1.63;;;-2.80;99.90;;;;;;7389924;19;20395;-79
2021/12/03 04:20:12;;;;;;;2.20;1.63;;;-2.90;99.90;;;;;;7388934;19;20321;-78
2021/12/03 04:22:38;;;;;;;1.75;1.65;;;-2.80;99.90;;;;;;7392535;19;20312;-78
2021/12/03 04:25:04;;;;;;;3.07;1.90;;;-2.90;99.90;;;;;;7388433;19;20352;-78
2021/12/03 04:27:30;;;;;;;1.80;1.70;;;-2.90;99.90;;;;;;7390247;19;20320;-78
2021/12/03 04:29:56;;;;;;;2.17;1.98;;;-2.90;99.90;;;;;;7391187;19;20958;-78
2021/12/03 04:32:24;;;;;;;1.50;1.40;;;-2.90;99.90;;;;;;7390358;19;20935;-78
2021/12/03 04:34:50;;;;;;;1.77;1.67;;;-2.90;99.90;;;;;;7390700;19;20313;-77
2021/12/03 04:37:16;;;;;;;1.65;1.55;;;-2.80;99.90;;;;;;7389706;19;20307;-77
2021/12/03 04:39:41;;;;;;;2.95;1.83;;;-2.80;99.90;;;;;;7386970;19;20316;-77
2021/12/03 04:42:07;;;;;;;1.97;1.87;;;-2.80;99.90;;;;;;7392619;19;20297;-77
2021/12/03 04:44:35;;;;;;;6.22;2.22;;;-2.80;99.90;;;;;;7391382;19;20337;-78
2021/12/03 04:47:00;;;;;;;2.97;1.70;;;-2.80;99.90;;;;;;7389273;19;20855;-79
2021/12/03 04:49:26;;;;;;;1.90;1.73;;;-2.80;99.90;;;;;;7392614;19;20308;-78
2021/12/03 04:51:52;;;;;;;1.67;1.58;;;-2.80;99.90;;;;;;7390591;19;20671;-79
2021/12/03 04:54:18;;;;;;;3.85;2.53;;;-2.70;99.90;;;;;;7394526;19;20350;-79
2021/12/03 04:56:43;;;;;;;2.10;2.00;;;-2.70;99.90;;;;;;7394786;19;20297;-78
2021/12/03 04:59:09;;;;;;;3.42;2.20;;;-2.80;99.90;;;;;;7372024;19;20884;-79
2021/12/03 05:01:38;;;;;;;1.52;1.42;;;-2.60;99.90;;;;;;7371999;19;20867;-79
2021/12/03 05:04:25;;;;;;;1.88;1.77;;;-2.60;99.90;;;;;;7345242;19;20306;-78
2021/12/03 05:07:04;;;;;;;3.65;2.17;;;-2.40;99.90;;;;;;7389372;19;20638;-80
2021/12/03 05:09:30;;;;;;;3.60;1.73;;;-2.60;99.90;;;;;;7384681;19;20776;-79
2021/12/03 05:11:55;;;;;;;1.73;1.63;;;-2.60;99.90;;;;;;7387746;19;20422;-79
2021/12/03 05:14:21;;;;;;;1.73;1.47;;;-2.60;99.90;;;;;;7387015;19;20360;-79
2021/12/03 05:16:48;;;;;;;3.03;2.13;;;-2.50;99.90;;;;;;7392217;19;20300;-79
2021/12/03 05:19:15;;;;;;;2.40;2.22;;;-2.50;99.90;;;;;;7397663;19;20337;-79
2021/12/03 05:21:41;;;;;;;2.20;2.00;;;-2.40;99.90;;;;;;7390683;19;20312;-79
2021/12/03 05:24:06;;;;;;;5.60;1.93;;;-2.40;99.90;;;;;;7389471;19;20388;-79
2021/12/03 05:26:32;;;;;;;3.45;1.80;;;-2.40;99.90;;;;;;7390361;19;20384;-79
2021/12/03 05:28:58;;;;;;;2.45;1.77;;;-2.40;99.90;;;;;;7388025;19;20620;-79
2021/12/03 05:31:23;;;;;;;1.70;1.60;;;-2.30;99.90;;;;;;7388700;19;20320;-79
2021/12/03 05:33:50;;;;;;;2.20;1.80;;;-2.30;99.90;;;;;;7385168;19;20861;-79
2021/12/03 05:36:16;;;;;;;1.92;1.60;;;-2.30;99.90;;;;;;7390373;19;20316;-79
2021/12/03 05:38:42;;;;;;;2.40;1.20;;;-2.30;99.90;;;;;;7387961;19;21026;-79
2021/12/03 05:41:09;;;;;;;2.42;1.70;;;-2.20;99.90;;;;;;7385628;19;20358;-78
2021/12/03 05:43:34;;;;;;;1.80;1.70;;;-2.20;99.90;;;;;;7390470;19;20308;-79
2021/12/03 05:46:01;;;;;;;1.80;1.70;;;-2.10;99.90;;;;;;7383381;19;20402;-78
2021/12/03 05:48:29;;;;;;;2.35;2.15;;;-2.20;99.90;;;;;;7390613;19;20362;-80
2021/12/03 05:50:58;;;;;;;4.03;1.95;;;-2.10;99.90;;;;;;7390781;19;20338;-79
2021/12/03 05:53:27;;;;;;;2.78;2.03;;;-2.10;99.90;;;;;;7366706;19;20308;-80
2021/12/03 05:55:54;;;;;;;2.45;2.20;;;-2.10;99.90;;;;;;7385999;19;20709;-78
2021/12/03 05:58:20;;;;;;;3.00;2.40;;;-2.00;99.90;;;;;;7383601;19;20332;-77
2021/12/03 06:00:45;;;;;;;1.85;1.75;;;-2.00;99.90;;;;;;7363564;19;20320;-78
2021/12/03 06:03:11;;;;;;;2.13;1.60;;;-2.10;99.90;;;;;;7382821;19;20349;-78
2021/12/03 06:05:39;;;;;;;6.60;2.30;;;-1.90;99.90;;;;;;7383906;19;20327;-78
2021/12/03 06:08:04;;;;;;;1.40;1.30;;;-1.80;99.90;;;;;;7382632;19;20349;-78
2021/12/03 06:10:30;;;;;;;2.75;2.03;;;-1.80;99.90;;;;;;7383104;19;20305;-78
2021/12/03 06:12:56;;;;;;;3.23;1.90;;;-1.70;99.90;;;;;;7386034;19;20329;-78
2021/12/03 06:15:22;;;;;;;2.47;2.28;;;-1.80;99.90;;;;;;7382883;19;20331;-78
2021/12/03 06:17:47;;;;;;;2.20;2.05;;;-1.70;99.90;;;;;;7382246;19;20410;-80
2021/12/03 06:20:13;;;;;;;2.23;1.83;;;-1.60;99.90;;;;;;7381194;19;20343;-79
2021/12/03 06:22:39;;;;;;;2.10;2.00;;;-1.50;99.90;;;;;;7382671;19;20312;-79
2021/12/03 06:25:05;;;;;;;1.85;1.60;;;-1.60;99.90;;;;;;7383533;19;20331;-79
2021/12/03 06:27:31;;;;;;;2.67;2.30;;;-1.50;99.90;;;;;;7379120;19;20760;-79
2021/12/03 06:29:57;;;;;;;2.03;1.88;;;-1.50;99.90;;;;;;7382633;19;20304;-79
2021/12/03 06:32:23;;;;;;;2.38;2.15;;;-1.50;99.90;;;;;;7384159;19;20308;-79
2021/12/03 06:34:48;;;;;;;1.70;1.53;;;-1.50;99.90;;;;;;7381957;19;20308;-80
2021/12/03 06:37:14;;;;;;;2.30;2.10;;;-1.50;99.90;;;;;;7382615;19;20393;-79
2021/12/03 06:39:40;;;;;;;2.13;1.95;;;-1.60;99.90;;;;;;7386272;19;20869;-79
2021/12/03 06:42:05;;;;;;;1.60;1.50;;;-1.60;99.90;;;;;;7381770;19;21250;-79
2021/12/03 06:44:31;;;;;;;2.88;1.75;;;-1.60;99.90;;;;;;7383693;19;20838;-79
2021/12/03 06:46:57;;;;;;;2.00;1.80;;;-1.60;99.90;;;;;;7383650;19;20312;-78
2021/12/03 06:49:23;;;;;;;2.45;2.10;;;-1.60;99.90;;;;;;7381404;19;20355;-79
2021/12/03 06:51:50;;;;;;;3.00;2.03;;;-1.50;99.90;;;;;;7387027;19;20751;-80
2021/12/03 06:54:25;;;;;;;2.90;1.92;;;-1.60;99.90;;;;;;7386214;19;20381;-80
2021/12/03 06:56:52;;;;;;;2.75;1.70;;;-1.60;99.90;;;;;;7386627;19;20328;-80
2021/12/03 06:59:21;;;;;;;6.70;2.13;;;-1.60;99.90;;;;;;7382931;19;20370;-80
2021/12/03 07:01:47;;;;;;;2.03;1.83;;;-1.60;99.90;;;;;;7384681;19;20320;-80
2021/12/03 07:04:12;;;;;;;2.50;2.10;;;-1.60;99.90;;;;;;7384484;19;20313;-80
2021/12/03 07:06:38;;;;;;;2.42;2.00;;;-1.60;99.90;;;;;;7382301;19;20319;-80
2021/12/03 07:09:04;;;;;;;3.58;2.58;;;-1.60;99.90;;;;;;7384734;19;20351;-79
2021/12/03 07:11:30;;;;;;;2.63;1.73;;;-1.60;99.90;;;;;;7381968;19;20320;-80
2021/12/03 07:13:56;;;;;;;2.43;1.67;;;-1.50;99.90;;;;;;7382554;19;21258;-79
2021/12/03 07:16:21;;;;;;;2.17;1.98;;;-1.50;99.90;;;;;;7385004;19;20757;-79
2021/12/03 07:18:47;;;;;;;2.10;1.90;;;-1.50;99.90;;;;;;7383062;19;20703;-79
2021/12/03 07:21:13;;;;;;;2.20;1.60;;;-1.50;99.90;;;;;;7384300;19;20296;-80
2021/12/03 07:23:38;;;;;;;2.38;2.17;;;-1.50;99.90;;;;;;7382896;19;20656;-79
2021/12/03 07:26:04;;;;;;;1.75;1.65;;;-1.50;99.90;;;;;;7371649;19;20343;-80
2021/12/03 07:28:30;;;;;;;2.10;1.90;;;-1.50;99.90;;;;;;7382553;19;20319;-80
2021/12/03 07:30:56;;;;;;;2.53;2.20;;;-1.50;99.90;;;;;;7384575;19;20333;-79
2021/12/03 07:33:21;;;;;;;2.53;1.98;;;-1.40;99.90;;;;;;7382055;19;20325;-77
2021/12/03 07:35:47;;;;;;;4.40;2.27;;;-1.40;99.90;;;;;;7383511;19;20316;-79
2021/12/03 07:38:15;;;;;;;4.53;2.07;;;-1.40;99.90;;;;;;7384296;19;20320;-79
2021/12/03 07:40:41;;;;;;;3.28;2.00;;;-1.30;99.90;;;;;;7385787;19;20315;-79
2021/12/03 07:43:07;;;;;;;1.73;1.63;;;-1.10;99.90;;;;;;7383123;19;20331;-80
2021/12/03 07:45:33;;;;;;;1.60;1.50;;;-1.20;99.90;;;;;;7381625;19;20361;-78
2021/12/03 07:47:58;;;;;;;2.20;2.00;;;-1.10;99.90;;;;;;7382178;19;20308;-79
2021/12/03 07:50:24;;;;;;;1.97;1.87;;;-1.10;99.90;;;;;;7379344;19;20311;-79
2021/12/03 07:52:49;;;;;;;1.98;1.77;;;-1.00;99.90;;;;;;7381844;19;20333;-79
2021/12/03 07:55:15;;;;;;;4.20;2.00;;;-1.00;99.90;;;;;;7381853;19;20347;-79
2021/12/03 07:57:41;;;;;;;1.80;1.70;;;-0.90;99.90;;;;;;7381706;19;20309;-79
2021/12/03 08:00:07;;;;;;;1.98;1.77;;;-0.90;99.90;;;;;;7384433;19;20316;-78
2021/12/03 08:02:39;;;;;;;1.77;1.63;;;-0.80;99.90;;;;;;7386467;19;20304;-79
2021/12/03 08:05:05;;;;;;;2.33;1.70;;;-0.80;99.90;;;;;;7384041;19;20325;-80
2021/12/03 08:07:31;;;;;;;1.70;1.60;;;-0.70;99.90;;;;;;7381791;19;20348;-79
2021/12/03 08:09:56;;;;;;;3.10;1.93;;;-0.70;99.90;;;;;;7379484;19;20317;-80
2021/12/03 08:12:22;;;;;;;1.77;1.67;;;-0.70;99.90;;;;;;7381169;19;20374;-80
2021/12/03 08:14:48;;;;;;;2.15;1.88;;;-0.70;99.90;;;;;;7384716;19;20367;-80
2021/12/03 08:17:13;;;;;;;2.00;1.87;;;-0.60;99.90;;;;;;7383390;19;20914;-79
2021/12/03 08:19:39;;;;;;;1.83;1.73;;;-0.60;99.90;;;;;;7382155;19;20685;-80
2021/12/03 08:22:05;;;;;;;1.50;1.40;;;-0.50;99.90;;;;;;7380903;19;21006;-81
2021/12/03 08:24:30;;;;;;;1.90;1.80;;;-0.50;99.90;;;;;;7381483;19;20332;-79
2021/12/03 08:26:56;;;;;;;3.85;2.13;;;-0.40;99.90;;;;;;7381467;19;20316;-80
2021/12/03 08:29:21;;;;;;;1.77;1.67;;;-0.40;99.90;;;;;;7383296;19;20305;-80
2021/12/03 08:31:47;;;;;;;2.25;1.52;;;-0.30;99.90;;;;;;7385195;19;20300;-79
2021/12/03 08:34:13;;;;;;;2.80;2.23;;;-0.30;99.90;;;;;;7382166;19;20337;-79
2021/12/03 08:36:38;;;;;;;1.70;1.60;;;-0.20;99.90;;;;;;7382115;19;20317;-79
2021/12/03 08:39:04;;;;;;;2.85;2.20;;;-0.20;99.90;;;;;;7381033;19;20341;-79
2021/12/03 08:41:30;;;;;;;2.33;1.73;;;-0.10;99.90;;;;;;7383493;19;20338;-80
2021/12/03 08:43:56;;;;;;;3.27;1.63;;;-0.10;99.90;;;;;;7381659;19;20332;-80
2021/12/03 08:46:27;;;;;;;3.30;1.92;;;0.00;99.90;;;;;;7382298;19;20340;-79
2021/12/03 08:48:52;;;;;;;1.50;1.40;;;0.00;99.90;;;;;;7374695;19;20297;-80
2021/12/03 08:51:28;;;;;;;2.43;2.17;;;0.10;99.90;;;;;;7373432;19;20347;-79
2021/12/03 08:56:40;;;;;;;1.58;1.48;;;0.30;99.90;;;;;;7388861;19;20407;-78
2021/12/03 08:59:05;;;;;;;2.07;1.93;;;0.30;99.90;;;;;;7389660;19;20708;-80
2021/12/03 09:01:31;;;;;;;2.50;1.53;;;0.50;99.90;;;;;;7390265;19;20305;-78
2021/12/03 09:03:57;;;;;;;1.75;1.65;;;0.50;99.90;;;;;;7387617;19;20424;-82
2021/12/03 09:06:22;;;;;;;1.70;1.60;;;0.60;99.90;;;;;;7383924;19;20340;-80
2021/12/03 09:08:48;;;;;;;2.08;1.88;;;0.60;99.90;;;;;;7387001;19;20312;-77
2021/12/03 09:11:14;;;;;;;2.30;1.60;;;0.70;99.90;;;;;;7385303;19;20337;-79
2021/12/03 09:13:41;;;;;;;2.20;1.90;;;0.80;99.90;;;;;;7384651;19;20317;-79
2021/12/03 09:16:09;;;;;;;2.60;1.60;;;0.70;99.90;;;;;;7385430;19;20309;-79
2021/12/03 09:18:43;;;;;;;2.10;1.90;;;0.80;99.90;;;;;;7383708;19;20883;-78
2021/12/03 09:21:14;;;;;;;2.25;1.95;;;0.80;99.90;;;;;;7387838;19;20385;-78
2021/12/03 09:23:56;;;;;;;1.40;1.30;;;0.80;99.90;;;;;;7388610;19;20864;-78
2021/12/03 09:26:24;;;;;;;2.53;2.08;;;0.80;99.90;;;;;;7386845;19;20348;-78
2021/12/03 09:28:53;;;;;;;2.65;2.20;;;0.90;99.90;;;;;;7388328;19;20328;-79
2021/12/03 09:31:18;;;;;;;2.03;1.73;;;1.00;99.90;;;;;;7388235;19;20937;-79
2021/12/03 09:33:47;;;;;;;1.87;1.77;;;1.20;99.90;;;;;;7387979;19;20336;-79
2021/12/03 09:36:12;;;;;;;2.05;1.95;;;1.20;99.90;;;;;;7387409;19;20351;-79
2021/12/03 09:38:38;;;;;;;3.43;1.77;;;1.30;99.90;;;;;;7388200;19;20384;-79
2021/12/03 09:41:12;;;;;;;1.42;1.40;;;1.20;99.90;;;;;;7387266;19;20345;-78
2021/12/03 09:43:40;;;;;;;3.50;1.65;;;1.40;99.90;;;;;;7386241;19;20352;-79
2021/12/03 09:46:40;;;;;;;2.03;1.85;;;1.30;99.90;;;;;;7388346;19;20369;-77
2021/12/03 09:51:35;;;;;;;3.65;1.90;;;1.30;99.90;;;;;;7387791;19;20349;-78
2021/12/03 09:54:22;;;;;;;1.70;1.60;;;1.30;99.90;;;;;;7388800;19;20381;-79
2021/12/03 09:56:49;;;;;;;3.35;1.77;;;1.30;99.90;;;;;;7283465;19;2014318;-78
2021/12/03 10:15:04;;;;;;;1.67;1.57;;;1.70;99.90;;;;;;7385554;19;20336;-80
2021/12/03 10:17:46;;;;;;;2.47;1.70;;;1.80;99.90;;;;;;7366335;19;20317;-79
2021/12/03 10:23:31;;;;;;;3.15;1.73;;;1.80;99.90;;;;;;7387419;19;20313;-78
2021/12/03 10:34:01;;;;;;;3.17;2.00;;;2.00;99.90;;;;;;7385738;19;20885;-79
2021/12/03 10:36:44;;;;;;;1.65;1.55;;;2.10;99.90;;;;;;7387046;19;20312;-82
2021/12/03 10:39:21;;;;;;;1.40;1.30;;;2.20;99.90;;;;;;7283550;19;2020030;-80
2021/12/03 10:42:08;;;;;;;6.57;1.63;;;2.20;99.90;;;;;;7283289;19;2017042;-79
2021/12/03 10:44:49;;;;;;;1.70;1.60;;;2.20;99.90;;;;;;7283504;19;2017594;-79
2021/12/03 10:47:30;;;;;;;4.28;1.50;;;2.30;99.90;;;;;;7402219;19;20321;-79
2021/12/03 10:50:06;;;;;;;2.92;1.67;;;2.30;99.90;;;;;;7394586;19;20926;-79
2021/12/03 10:52:49;;;;;;;3.53;1.57;;;2.40;99.90;;;;;;7390484;19;20320;-78
2021/12/03 10:55:56;;;;;;;1.50;1.40;;;2.40;99.90;;;;;;7383118;19;20409;-79
2021/12/03 10:58:21;;;;;;;1.35;1.25;;;2.50;99.90;;;;;;7281622;19;2010396;-78
2021/12/03 11:06:52;;;;;;;3.30;1.75;;;2.70;99.90;;;;;;7385643;19;20313;-80
2021/12/03 11:15:36;;;;;;;2.38;1.20;;;2.90;99.90;;;;;;7280387;19;2010801;-79
2021/12/03 11:18:25;;;;;;;1.40;1.30;;;2.90;99.90;;;;;;7385482;19;20930;-80
2021/12/03 11:37:33;;;;;;;1.75;1.40;;;3.10;99.90;;;;;;7277267;19;2008038;-80
2021/12/03 11:43:11;;;;;;;1.45;1.35;;;3.20;99.90;;;;;;7279140;19;2010659;-78
2021/12/03 11:46:30;;;;;;;1.30;1.27;;;3.20;99.90;;;;;;7280452;19;2009431;-77
2021/12/03 11:52:29;;;;;;;0.80;0.80;;;3.30;99.90;;;;;;7281156;19;2009741;-78
2021/12/03 11:56:04;;;;;;;1.20;1.10;;;3.20;99.90;;;;;;7281590;19;2010349;-79
2021/12/03 12:10:09;;;;;;;2.03;1.10;;;3.20;99.90;;;;;;7281496;19;2004845;-79
2021/12/03 12:18:07;;;;;;;1.35;1.25;;;3.00;99.90;;;;;;7383912;19;20316;-80
2021/12/03 12:23:41;;;;;;;1.88;1.65;;;3.10;99.90;;;;;;7381485;19;20320;-79
2021/12/03 12:26:22;;;;;;;0.90;0.90;;;3.00;99.90;;;;;;7282670;19;2009077;-80
2021/12/03 13:13:44;;;;;;;1.63;1.50;;;2.60;99.90;;;;;;7288540;19;2005954;-80
2021/12/03 13:16:54;;;;;;;2.97;1.77;;;2.60;99.90;;;;;;7290987;19;2013837;-84
2021/12/03 13:22:30;;;;;;;2.47;1.85;;;2.50;99.90;;;;;;7402276;19;20301;-82
2021/12/03 13:28:26;;;;;;;1.42;1.30;;;2.50;99.90;;;;;;7392589;19;20402;-81
2021/12/03 13:34:38;;;;;;;2.22;1.67;;;2.40;99.90;;;;;;7395509;19;20367;-80
2021/12/03 13:37:22;;;;;;;1.67;1.58;;;2.20;99.90;;;;;;7290087;19;2004518;-80
2021/12/03 13:40:53;;;;;;;2.00;1.53;;;2.10;99.90;;;;;;7288336;19;2004330;-80
2021/12/03 14:02:33;;;;;;;9.97;4.87;;;2.10;99.90;;;;;;7386632;19;20415;-81
2021/12/03 14:05:24;;;;;;;5.78;4.53;;;1.90;99.90;;;;;;7300856;19;2004502;-80
2021/12/03 14:20:21;;;;;;;4.03;3.60;;;1.80;99.90;;;;;;7413782;19;20343;-84
2021/12/03 14:29:48;;;;;;;3.20;2.00;;;1.80;99.90;;;;;;7408097;19;20332;-82
2021/12/03 14:36:51;;;;;;;3.20;2.05;;;1.70;99.90;;;;;;7407308;19;20342;-82
2021/12/03 14:44:25;;;;;;;1.40;1.35;;;1.60;99.90;;;;;;7400810;19;20312;-80
2021/12/03 14:54:48;;;;;;;2.45;2.05;;;1.50;99.90;;;;;;7410665;19;20345;-82
2021/12/03 15:00:31;;;;;;;1.83;1.73;;;1.50;99.90;;;;;;7406723;19;20301;-81
2021/12/03 15:11:46;;;;;;;3.90;1.90;;;1.50;99.90;;;;;;7378693;19;20320;-80
2021/12/03 15:24:53;;;;;;;4.65;3.50;;;1.40;99.90;;;;;;7294672;19;2004519;-80
2021/12/03 15:32:47;;;;;;;2.03;1.92;;;1.40;99.90;;;;;;7397480;19;20856;-80
2021/12/03 16:08:35;;;;;;;1.85;1.75;;;1.50;99.90;;;;;;7392063;19;20305;-83
2021/12/03 16:11:37;;;;;;;5.13;2.08;;;1.50;99.90;;;;;;7210793;19;2004397;-81
2021/12/03 16:54:21;;;;;;;2.33;2.20;;;1.40;99.90;;;;;;7301089;19;2004423;-82
2021/12/03 16:56:56;;;;;;;2.47;2.25;;;1.40;99.90;;;;;;7360768;19;20313;-83
2021/12/03 16:59:50;;;;;;;2.40;2.00;;;1.40;99.90;;;;;;7320256;19;20348;-86
2021/12/03 17:02:47;;;;;;;2.63;2.42;;;1.40;99.90;;;;;;7306884;19;2004594;-85
2021/12/03 17:08:30;;;;;;;2.92;2.60;;;1.40;99.90;;;;;;7415689;19;20311;-88
2021/12/03 17:49:16;;;;;;;2.03;1.92;;;1.70;99.90;;;;;;7364712;19;20262;-78
2021/12/03 17:56:39;;;;;;;1.97;1.87;;;1.70;99.90;;;;;;7397980;19;20346;-77
2021/12/03 18:01:47;;;;;;;2.90;2.63;;;1.70;99.90;;;;;;7390872;19;20427;-79
2021/12/03 18:04:24;;;;;;;5.00;2.30;;;1.80;99.90;;;;;;7392732;19;20767;-81
2021/12/03 18:06:59;;;;;;;2.23;2.07;;;1.80;99.90;;;;;;7396914;19;20351;-79
2021/12/03 18:10:25;;;;;;;2.70;2.50;;;1.80;99.90;;;;;;7337919;19;20400;-80
2021/12/03 18:13:34;;;;;;;3.40;2.60;;;1.80;99.90;;;;;;7362451;19;20431;-79
2021/12/03 18:43:44;;;;;;;3.50;3.20;;;1.70;99.90;;;;;;7264507;19;2006641;-77
2021/12/03 18:49:08;;;;;;;2.83;2.53;;;1.60;99.90;;;;;;7388242;19;20366;-77
2021/12/03 18:51:45;;;;;;;2.42;2.22;;;1.60;99.90;;;;;;7283502;19;2006867;-77
2021/12/03 18:56:53;;;;;;;2.88;2.20;;;1.60;99.90;;;;;;7387737;19;20352;-77
2021/12/03 18:59:21;;;;;;;2.85;2.38;;;1.60;99.90;;;;;;7362934;19;20341;-77
2021/12/03 19:01:48;;;;;;;2.83;2.33;;;1.40;99.90;;;;;;7390794;19;20369;-77
2021/12/03 19:07:10;;;;;;;2.87;2.30;;;1.50;99.90;;;;;;7282240;19;2004579;-77
2021/12/03 19:09:43;;;;;;;2.70;2.50;;;1.40;99.90;;;;;;7389909;19;20317;-80
2021/12/03 19:12:21;;;;;;;2.15;2.03;;;1.60;99.90;;;;;;7389603;19;20340;-78
2021/12/03 19:14:53;;;;;;;3.25;2.92;;;1.60;99.90;;;;;;7392664;19;20352;-77
2021/12/03 19:17:19;;;;;;;2.92;2.63;;;1.50;99.90;;;;;;7388443;19;20324;-77
2021/12/03 19:19:46;;;;;;;2.92;2.53;;;1.50;99.90;;;;;;7392195;19;20352;-77
2021/12/03 19:22:14;;;;;;;2.45;2.25;;;1.50;99.90;;;;;;7387569;19;20724;-78
2021/12/03 19:24:50;;;;;;;2.33;2.13;;;1.60;99.90;;;;;;7393255;19;20468;-77